Time;durP1;ratioP1;P1;durP2;ratioP2;P2;SDS_P1;SDS_P2;PMS_P1;PMS_P2;Temp;Humidity;BMP_temperature;BMP_pressure;BME280_temperature;BME280_humidity;BME280_pressure;Samples;Min_cycle;Max_cycle;Signal;HPM_P1;HPM_P2
2023/07/22 00:01:41;;;;;;;21.23;6.43;;;;;;;27.55;66.10;100694.66;4958382;28;20105;-82
2023/07/22 00:04:16;;;;;;;17.02;5.97;;;;;;;27.42;66.03;100688.44;4934109;28;20067;-80
2023/07/22 00:06:43;;;;;;;18.88;5.63;;;;;;;27.21;66.22;100670.09;4959543;28;20049;-80
2023/07/22 00:09:14;;;;;;;21.58;4.72;;;;;;;27.47;65.94;100685.81;4972877;28;20046;-79
2023/07/22 00:11:43;;;;;;;14.50;4.55;;;;;;;27.80;65.29;100667.81;4968226;28;20056;-80
2023/07/22 00:14:10;;;;;;;20.90;4.82;;;;;;;28.18;63.92;100698.97;4981273;28;20049;-80
2023/07/22 00:16:36;;;;;;;17.27;5.00;;;;;;;28.13;62.84;100688.81;4970185;28;20050;-80
2023/07/22 00:19:07;;;;;;;18.27;5.07;;;;;;;27.75;62.93;100675.91;4969378;28;20057;-80
2023/07/22 00:21:34;;;;;;;17.83;4.60;;;;;;;27.81;63.70;100683.09;4956298;28;20406;-79
2023/07/22 00:24:00;;;;;;;14.23;5.40;;;;;;;27.59;62.69;100622.22;4956073;28;20050;-80
2023/07/22 00:26:27;;;;;;;14.30;4.68;;;;;;;27.84;62.03;100679.06;4952449;28;20193;-80
2023/07/22 00:28:56;;;;;;;14.63;5.63;;;;;;;28.09;62.75;100681.38;4974839;28;20046;-79
2023/07/22 00:31:24;;;;;;;8.05;4.35;;;;;;;28.01;62.35;100640.84;4973516;28;20054;-80
2023/07/22 00:33:55;;;;;;;14.60;4.47;;;;;;;28.11;61.79;100620.00;4983243;28;20112;-80
2023/07/22 00:36:22;;;;;;;11.50;4.50;;;;;;;28.20;60.83;100661.31;4955716;28;20485;-80
2023/07/22 00:38:49;;;;;;;16.38;4.55;;;;;;;27.82;60.87;100638.44;4989114;28;20520;-81
2023/07/22 00:41:16;;;;;;;16.45;4.65;;;;;;;27.84;61.29;100649.06;4980796;28;20060;-80
2023/07/22 00:43:42;;;;;;;15.00;4.40;;;;;;;27.83;61.39;100653.69;4980036;28;20093;-80
2023/07/22 00:46:10;;;;;;;10.60;4.38;;;;;;;27.73;60.24;100645.34;4986021;28;20054;-80
2023/07/22 00:48:44;;;;;;;10.05;3.85;;;;;;;27.67;61.13;100646.31;4950883;28;20721;-81
2023/07/22 00:51:12;;;;;;;17.45;4.65;;;;;;;27.57;61.49;100646.16;4970501;28;20310;-80
2023/07/22 00:53:39;;;;;;;18.55;4.82;;;;;;;27.38;61.32;100621.91;4960028;28;20042;-81
2023/07/22 00:56:06;;;;;;;16.80;4.35;;;;;;;27.49;61.40;100634.59;4953283;28;20054;-79
2023/07/22 00:58:37;;;;;;;9.82;4.05;;;;;;;27.29;61.02;100617.91;4942418;28;20054;-80
2023/07/22 01:01:03;;;;;;;11.30;4.43;;;;;;;27.28;61.09;100616.25;4968874;28;20043;-79
2023/07/22 01:03:35;;;;;;;15.07;4.22;;;;;;;27.59;61.15;100644.03;4951228;28;20073;-80
2023/07/22 01:06:02;;;;;;;;;;;;;;;27.57;60.10;100646.97;4967723;28;20080;-80
2023/07/22 01:08:29;;;;;;;9.52;4.60;;;;;;;27.36;61.54;100610.41;4982522;28;20396;-78
2023/07/22 01:11:01;;;;;;;6.97;3.30;;;;;;;27.58;60.83;100629.56;4971691;28;20116;-80
2023/07/22 01:13:34;;;;;;;11.50;3.90;;;;;;;27.75;60.30;100670.47;4945491;28;20768;-79
2023/07/22 01:16:01;;;;;;;13.68;3.75;;;;;;;27.76;60.45;100671.28;4965759;28;20053;-79
2023/07/22 01:18:32;;;;;;;10.57;3.75;;;;;;;27.91;61.03;100666.94;4962517;28;20135;-80
2023/07/22 01:20:59;;;;;;;15.27;4.20;;;;;;;27.91;59.93;100663.34;4961668;28;20109;-79
2023/07/22 01:23:26;;;;;;;14.85;4.97;;;;;;;27.78;59.72;100648.13;4958403;28;20097;-80
2023/07/22 01:25:56;;;;;;;12.25;4.35;;;;;;;27.67;59.98;100654.50;4957905;28;20495;-78
2023/07/22 01:28:23;;;;;;;7.53;4.00;;;;;;;27.45;60.16;100605.34;4960916;28;20300;-79
2023/07/22 01:30:53;;;;;;;9.27;3.70;;;;;;;27.87;61.43;100662.22;4964210;28;20061;-79
2023/07/22 01:33:21;;;;;;;9.00;3.70;;;;;;;27.92;61.50;100649.47;4956175;28;20567;-80
2023/07/22 01:35:50;;;;;;;11.30;4.18;;;;;;;28.00;59.53;100661.03;4963284;28;20558;-80
2023/07/22 01:38:17;;;;;;;15.13;5.05;;;;;;;27.77;59.77;100657.41;4958647;28;20081;-81
2023/07/22 01:40:43;;;;;;;9.40;3.90;;;;;;;27.67;60.23;100662.69;4980336;28;20037;-81
2023/07/22 01:43:10;;;;;;;7.95;3.67;;;;;;;27.97;61.17;100699.75;4981341;28;20397;-80
2023/07/22 01:45:38;;;;;;;9.43;4.20;;;;;;;27.92;60.83;100676.75;4946283;28;20218;-80
2023/07/22 01:48:14;;;;;;;12.52;4.88;;;;;;;27.89;59.87;100671.81;4927756;28;20088;-80
2023/07/22 01:50:43;;;;;;;9.27;3.58;;;;;;;27.82;60.80;100695.72;4940262;28;20279;-79
2023/07/22 01:53:11;;;;;;;10.57;4.05;;;;;;;27.82;60.24;100683.94;4935852;28;20485;-80
2023/07/22 01:55:38;;;;;;;11.23;4.70;;;;;;;27.90;60.52;100667.19;4940468;28;20053;-79
2023/07/22 01:58:08;;;;;;;9.52;4.18;;;;;;;28.18;59.52;100693.53;4966296;28;20510;-79
2023/07/22 02:00:35;;;;;;;11.85;3.97;;;;;;;27.78;59.98;100642.69;4961906;28;20481;-80
2023/07/22 02:03:02;;;;;;;10.27;4.00;;;;;;;28.23;59.55;100698.19;4945421;28;20731;-78
2023/07/22 02:05:35;;;;;;;14.30;4.82;;;;;;;27.97;59.17;100710.66;4973079;28;20418;-81
2023/07/22 02:08:11;;;;;;;8.43;4.03;;;;;;;27.54;60.41;100630.31;4964878;28;20073;-79
2023/07/22 02:10:43;;;;;;;12.32;4.80;;;;;;;28.06;59.71;100703.69;4957245;28;20053;-80
2023/07/22 02:13:11;;;;;;;11.90;4.57;;;;;;;28.01;59.42;100700.88;4955709;28;20141;-79
2023/07/22 02:15:38;;;;;;;9.50;4.13;;;;;;;27.87;59.10;100700.41;4950569;28;20190;-80
2023/07/22 02:18:06;;;;;;;10.35;4.57;;;;;;;27.68;58.69;100705.25;4948661;28;20141;-79
2023/07/22 02:20:33;;;;;;;14.68;5.05;;;;;;;27.66;59.59;100704.69;4955378;28;20315;-78
2023/07/22 02:23:00;;;;;;;6.55;3.65;;;;;;;27.69;59.95;100729.53;4960186;28;20397;-78
2023/07/22 02:25:27;;;;;;;12.77;4.43;;;;;;;27.74;58.70;100727.97;4959110;28;20049;-79
2023/07/22 02:27:58;;;;;;;10.70;4.30;;;;;;;27.60;59.86;100711.94;4967437;28;20462;-79
2023/07/22 02:30:25;;;;;;;10.57;3.90;;;;;;;27.68;60.55;100702.53;4970162;28;20446;-79
2023/07/22 02:32:52;;;;;;;18.00;4.30;;;;;;;28.08;60.45;100739.75;4975973;28;20470;-78
2023/07/22 02:35:21;;;;;;;15.18;5.10;;;;;;;28.10;59.72;100743.03;4966618;28;20087;-80
2023/07/22 02:37:48;;;;;;;11.93;5.00;;;;;;;27.96;59.58;100722.63;4970731;28;20050;-79
2023/07/22 02:40:18;;;;;;;12.05;4.95;;;;;;;27.99;60.27;100747.53;4977715;28;20058;-79
2023/07/22 02:42:46;;;;;;;9.50;4.00;;;;;;;27.86;61.15;100753.31;4964341;28;20050;-79
2023/07/22 02:45:13;;;;;;;13.07;5.25;;;;;;;27.84;60.18;100750.00;4949955;28;20549;-78
2023/07/22 02:47:40;;;;;;;11.50;4.65;;;;;;;27.55;60.67;100730.97;4947389;28;20049;-79
2023/07/22 02:50:08;;;;;;;13.90;4.43;;;;;;;27.64;59.97;100755.91;4944673;28;20046;-80
2023/07/22 02:52:36;;;;;;;11.32;4.03;;;;;;;27.58;59.52;100762.34;4942885;28;20125;-78
2023/07/22 02:55:15;;;;;;;7.65;3.80;;;;;;;27.56;61.16;100751.69;4958482;28;20101;-80
2023/07/22 02:57:42;;;;;;;11.32;4.43;;;;;;;27.82;60.10;100769.34;4962563;28;20129;-79
2023/07/22 03:00:20;;;;;;;8.05;3.67;;;;;;;27.96;61.01;100744.47;4960658;28;20528;-79
2023/07/22 03:02:46;;;;;;;9.48;3.92;;;;;;;28.04;59.39;100771.34;4977132;28;20054;-79
2023/07/22 03:05:13;;;;;;;8.13;3.95;;;;;;;27.89;59.53;100775.47;4949804;28;20544;-80
2023/07/22 03:07:40;;;;;;;6.00;3.60;;;;;;;27.96;60.20;100766.28;4978296;28;20067;-79
2023/07/22 03:10:10;;;;;;;14.52;4.43;;;;;;;28.04;58.14;100787.72;4974666;28;20068;-78
2023/07/22 03:12:40;;;;;;;8.63;3.70;;;;;;;27.78;59.36;100794.59;4969084;28;20453;-79
2023/07/22 03:15:08;;;;;;;10.90;4.25;;;;;;;27.31;59.26;100757.50;4977588;28;20710;-77
2023/07/22 03:17:37;;;;;;;14.80;4.32;;;;;;;27.30;59.81;100772.19;4969301;28;20080;-79
2023/07/22 03:20:14;;;;;;;10.13;5.13;;;;;;;27.22;59.78;100791.66;4968904;28;20137;-79
2023/07/22 03:22:41;;;;;;;8.27;4.72;;;;;;;26.85;60.06;100778.34;4974672;28;20128;-79
2023/07/22 03:25:12;;;;;;;10.55;4.28;;;;;;;26.56;60.19;100764.66;4960718;28;20100;-80
2023/07/22 03:27:40;;;;;;;;;;;;;;;26.54;61.30;100801.34;4980268;28;20136;-79
2023/07/22 03:30:15;;;;;;;9.90;4.28;;;;;;;26.37;61.61;100801.22;4990663;28;19931;-78
2023/07/22 03:32:44;;;;;;;13.05;4.40;;;;;;;26.31;62.04;100799.41;4988807;28;20505;-78
2023/07/22 03:35:15;;;;;;;8.68;4.57;;;;;;;26.31;62.06;100796.69;4976580;28;20374;-79
2023/07/22 03:37:43;;;;;;;8.75;4.65;;;;;;;25.54;61.77;100689.56;4989314;28;20046;-77
2023/07/22 03:40:20;;;;;;;8.05;3.90;;;;;;;26.25;61.74;100792.22;4939068;28;20434;-79
2023/07/22 03:42:50;;;;;;;7.63;4.43;;;;;;;26.11;62.76;100775.28;4965641;28;20393;-79
2023/07/22 03:45:18;;;;;;;10.17;4.67;;;;;;;26.28;62.32;100791.72;4971143;28;20056;-79
2023/07/22 03:47:52;;;;;;;10.50;4.70;;;;;;;26.23;62.43;100763.31;4960408;28;20315;-79
2023/07/22 03:50:20;;;;;;;10.57;4.10;;;;;;;26.52;61.28;100784.41;4963243;28;20398;-80
2023/07/22 03:52:48;;;;;;;7.20;4.50;;;;;;;26.41;60.81;100786.06;4960788;28;20053;-82
2023/07/22 03:55:15;;;;;;;10.75;4.47;;;;;;;26.65;60.84;100784.16;4965473;28;20048;-80
2023/07/22 03:57:46;;;;;;;9.38;5.07;;;;;;;26.62;60.35;100795.53;4974324;28;20045;-80
2023/07/22 04:00:13;;;;;;;10.45;4.63;;;;;;;26.50;60.34;100800.13;4961016;28;20050;-80
2023/07/22 04:02:40;;;;;;;14.25;4.75;;;;;;;26.35;60.81;100776.13;4956458;28;20068;-78
2023/07/22 04:05:09;;;;;;;7.72;4.82;;;;;;;26.38;61.33;100811.00;4980397;28;20431;-79
2023/07/22 04:07:36;;;;;;;11.95;4.68;;;;;;;26.27;61.58;100798.25;4981773;28;20053;-78
2023/07/22 04:10:07;;;;;;;9.43;5.03;;;;;;;26.32;61.22;100804.63;4980312;28;20045;-79
2023/07/22 04:12:34;;;;;;;;;;;;;;;26.32;60.99;100801.91;4979348;28;20057;-79
2023/07/22 04:15:01;;;;;;;8.90;4.95;;;;;;;26.14;61.17;100797.41;4982714;28;20213;-78
2023/07/22 04:17:32;;;;;;;8.90;4.57;;;;;;;26.07;60.97;100813.00;4966053;28;20188;-79
2023/07/22 04:20:08;;;;;;;6.95;3.97;;;;;;;25.85;61.64;100803.69;4966569;28;20045;-80
2023/07/22 04:22:35;;;;;;;9.75;4.45;;;;;;;25.71;61.97;100798.47;4956406;28;20430;-79
2023/07/22 04:25:02;;;;;;;9.20;5.13;;;;;;;25.40;62.35;100760.66;4976308;28;20046;-80
2023/07/22 04:27:29;;;;;;;16.50;4.97;;;;;;;25.49;62.63;100790.00;4948394;28;20269;-79
2023/07/22 04:29:56;;;;;;;9.30;4.40;;;;;;;25.60;62.94;100807.41;4960798;28;20077;-79
2023/07/22 04:32:22;;;;;;;13.82;4.65;;;;;;;25.44;63.26;100780.88;4974927;28;20066;-78
2023/07/22 04:34:54;;;;;;;10.82;4.57;;;;;;;25.55;63.33;100793.69;4960794;28;20054;-78
2023/07/22 04:37:25;;;;;;;8.25;4.60;;;;;;;25.53;63.72;100790.34;4980530;28;20501;-79
2023/07/22 04:39:52;;;;;;;10.13;5.90;;;;;;;25.70;64.43;100815.00;4968515;28;20145;-79
2023/07/22 04:42:19;;;;;;;14.82;6.28;;;;;;;25.60;64.97;100796.53;4975199;28;20326;-78
2023/07/22 04:44:46;;;;;;;17.75;6.13;;;;;;;25.81;65.36;100816.94;4989076;28;20419;-79
2023/07/22 04:47:16;;;;;;;16.15;7.70;;;;;;;25.91;66.00;100819.13;4968549;28;20053;-79
2023/07/22 04:49:46;;;;;;;20.77;7.60;;;;;;;25.80;66.28;100797.06;4952705;28;20042;-78
2023/07/22 04:52:13;;;;;;;10.35;4.60;;;;;;;25.95;66.44;100820.31;4954909;28;20050;-80
2023/07/22 04:54:41;;;;;;;19.80;8.05;;;;;;;25.58;66.63;100761.44;4971366;28;20224;-78
2023/07/22 04:57:08;;;;;;;24.48;7.57;;;;;;;25.96;66.60;100805.66;4982903;28;20394;-78
2023/07/22 04:59:34;;;;;;;21.30;7.53;;;;;;;25.99;66.30;100794.28;4959697;28;20057;-79
2023/07/22 05:02:01;;;;;;;14.57;5.90;;;;;;;26.28;66.21;100829.81;4961770;28;20154;-80
2023/07/22 05:04:28;;;;;;;17.60;8.05;;;;;;;26.25;66.25;100842.00;4942017;28;20046;-78
2023/07/22 05:06:55;;;;;;;22.83;6.75;;;;;;;25.80;66.38;100777.19;4962107;28;20057;-78
2023/07/22 05:09:21;;;;;;;16.90;7.82;;;;;;;25.99;66.57;100810.63;4960294;28;20320;-77
2023/07/22 05:11:48;;;;;;;16.52;7.53;;;;;;;26.14;66.59;100824.63;4969708;28;20045;-78
2023/07/22 05:14:15;;;;;;;21.48;8.10;;;;;;;26.17;66.57;100829.59;4983872;28;20769;-79
2023/07/22 05:16:41;;;;;;;26.65;7.40;;;;;;;26.12;66.51;100826.75;4983527;28;20401;-80
2023/07/22 05:19:08;;;;;;;15.38;6.65;;;;;;;26.12;66.42;100821.31;4976492;28;20500;-78
2023/07/22 05:21:35;;;;;;;17.38;7.32;;;;;;;26.20;66.03;100845.44;4968681;28;20050;-78
2023/07/22 05:24:02;;;;;;;12.70;6.45;;;;;;;26.07;66.21;100818.47;4960175;28;20413;-79
2023/07/22 05:26:30;;;;;;;10.70;5.43;;;;;;;25.87;66.00;100777.13;4955734;28;20493;-79
2023/07/22 05:28:57;;;;;;;11.95;5.95;;;;;;;26.38;65.63;100847.22;4983179;28;20152;-78
2023/07/22 05:31:23;;;;;;;14.18;6.20;;;;;;;26.63;64.84;100855.22;4973598;28;20075;-78
2023/07/22 05:33:51;;;;;;;25.95;6.40;;;;;;;26.82;64.15;100858.66;5004106;28;20045;-80
2023/07/22 05:36:17;;;;;;;18.95;6.70;;;;;;;26.66;63.75;100823.97;4988003;28;20053;-80
2023/07/22 05:38:44;;;;;;;19.23;7.45;;;;;;;26.16;64.20;100746.28;4975242;28;20531;-79
2023/07/22 05:41:11;;;;;;;18.77;8.35;;;;;;;26.71;64.32;100837.69;4981786;28;20059;-79
2023/07/22 05:43:38;;;;;;;18.65;8.30;;;;;;;26.72;64.48;100846.69;4991099;28;20513;-79
2023/07/22 05:46:11;;;;;;;17.63;7.40;;;;;;;26.71;64.92;100864.91;4970241;28;20267;-79
2023/07/22 05:48:45;;;;;;;25.63;8.18;;;;;;;26.69;64.89;100868.94;4975535;28;20057;-79
2023/07/22 05:51:15;;;;;;;11.35;7.25;;;;;;;26.84;64.38;100869.28;4977778;28;20140;-79
2023/07/22 05:53:42;;;;;;;18.08;7.03;;;;;;;26.92;63.92;100863.50;4964470;28;20452;-78
2023/07/22 05:56:08;;;;;;;19.02;6.93;;;;;;;27.02;62.76;100857.44;4967380;28;20449;-79
2023/07/22 05:58:35;;;;;;;13.65;6.15;;;;;;;26.89;63.33;100842.16;4992340;28;20130;-78
2023/07/22 06:01:02;;;;;;;17.98;6.90;;;;;;;27.03;63.53;100865.34;4968671;28;20050;-80
2023/07/22 06:03:31;;;;;;;17.17;8.38;;;;;;;27.09;63.05;100863.59;4964371;28;20156;-78
2023/07/22 06:05:58;;;;;;;18.25;6.18;;;;;;;27.05;63.88;100876.84;4965180;28;20325;-77
2023/07/22 06:08:31;;;;;;;22.98;6.60;;;;;;;27.07;63.40;100877.44;4969352;28;20249;-79
2023/07/22 06:11:02;;;;;;;16.85;7.03;;;;;;;27.05;63.45;100870.56;4999889;28;20132;-80
2023/07/22 06:13:29;;;;;;;16.35;6.55;;;;;;;27.07;63.31;100888.34;4973634;28;20133;-78
2023/07/22 06:15:56;;;;;;;20.85;7.90;;;;;;;26.87;63.46;100860.66;4961688;28;20468;-79
2023/07/22 06:18:23;;;;;;;19.83;7.43;;;;;;;27.03;63.85;100889.06;4977779;28;20049;-78
2023/07/22 06:20:51;;;;;;;13.25;7.32;;;;;;;27.07;63.20;100891.06;4948838;28;20050;-80
2023/07/22 06:23:18;;;;;;;12.48;5.80;;;;;;;27.14;63.57;100892.81;4951334;28;20061;-80
2023/07/22 06:25:45;;;;;;;14.25;7.22;;;;;;;27.23;63.22;100892.22;4968260;28;20141;-79
2023/07/22 06:28:12;;;;;;;17.92;7.50;;;;;;;27.44;63.39;100904.41;4987532;28;20551;-78
2023/07/22 06:30:39;;;;;;;20.20;9.10;;;;;;;27.59;62.93;100905.78;4982116;28;20053;-79
2023/07/22 06:33:06;;;;;;;20.50;8.38;;;;;;;27.69;62.31;100909.53;4978660;28;20064;-79
2023/07/22 06:35:32;;;;;;;24.85;9.90;;;;;;;27.75;62.28;100905.03;4991736;28;20092;-80
2023/07/22 06:38:02;;;;;;;20.02;8.68;;;;;;;27.38;62.67;100837.25;4968647;28;20168;-79
2023/07/22 06:40:29;;;;;;;34.63;11.27;;;;;;;27.43;62.82;100855.56;4987119;28;20056;-78
2023/07/22 06:42:56;;;;;;;20.92;9.55;;;;;;;27.68;63.18;100912.53;4967205;28;20080;-80
2023/07/22 06:45:23;;;;;;;18.23;9.55;;;;;;;27.67;62.97;100906.25;4973685;28;20460;-79
2023/07/22 06:47:50;;;;;;;30.27;10.70;;;;;;;27.27;63.29;100859.91;4985230;28;20266;-79
2023/07/22 06:50:16;;;;;;;20.42;8.23;;;;;;;27.45;64.25;100922.44;4967954;28;20314;-80
2023/07/22 06:52:44;;;;;;;28.70;10.05;;;;;;;27.48;63.85;100902.88;4976438;28;20490;-80
2023/07/22 06:55:11;;;;;;;22.95;11.43;;;;;;;27.13;63.78;100831.22;4962899;28;20344;-77
2023/07/22 06:57:40;;;;;;;21.88;10.85;;;;;;;27.42;64.52;100900.25;4967229;28;20741;-79
2023/07/22 07:00:09;;;;;;;17.42;9.38;;;;;;;27.19;64.78;100903.88;4971476;28;20100;-79
2023/07/22 07:02:36;;;;;;;24.60;10.00;;;;;;;27.21;64.55;100899.84;4970322;28;20053;-79
2023/07/22 07:05:06;;;;;;;24.33;11.00;;;;;;;27.20;64.47;100891.91;4962899;28;20381;-77
2023/07/22 07:07:40;;;;;;;19.30;10.15;;;;;;;27.20;64.23;100889.19;4988730;28;20077;-80
2023/07/22 07:10:10;;;;;;;24.88;11.25;;;;;;;27.29;64.24;100890.47;4992431;28;20045;-79
2023/07/22 07:12:36;;;;;;;27.67;10.15;;;;;;;27.42;63.79;100906.53;4982235;28;20041;-79
2023/07/22 07:15:07;;;;;;;24.98;10.23;;;;;;;27.51;63.92;100904.28;4991511;28;20713;-79
2023/07/22 07:17:34;;;;;;;22.27;9.35;;;;;;;27.48;63.76;100902.03;5007176;28;20088;-77
2023/07/22 07:20:00;;;;;;;25.23;10.05;;;;;;;27.59;63.79;100900.34;4972816;28;20142;-79
2023/07/22 07:22:27;;;;;;;21.00;9.00;;;;;;;27.69;64.02;100911.44;4968781;28;20463;-78
2023/07/22 07:24:54;;;;;;;19.00;8.85;;;;;;;28.03;62.59;100912.38;4963224;28;20052;-79
2023/07/22 07:27:21;;;;;;;17.55;7.72;;;;;;;27.84;62.04;100865.41;4947659;28;20046;-79
2023/07/22 07:29:48;;;;;;;22.27;9.07;;;;;;;28.21;61.58;100903.16;4947135;28;20046;-79
2023/07/22 07:32:20;;;;;;;21.15;9.10;;;;;;;28.21;61.19;100925.00;4979320;28;20475;-79
2023/07/22 07:34:47;;;;;;;18.08;8.15;;;;;;;28.18;61.24;100919.19;5002722;28;20612;-79
2023/07/22 07:37:14;;;;;;;16.50;7.55;;;;;;;27.96;61.42;100898.06;4981835;28;20054;-79
2023/07/22 07:39:41;;;;;;;14.63;9.05;;;;;;;27.74;61.33;100851.53;5010142;28;20140;-79
2023/07/22 07:42:07;;;;;;;27.60;9.85;;;;;;;28.31;60.61;100940.75;4981527;28;20057;-80
2023/07/22 07:44:34;;;;;;;16.60;7.60;;;;;;;28.07;60.87;100916.28;4976850;28;20049;-80
2023/07/22 07:47:01;;;;;;;26.10;9.63;;;;;;;28.18;60.96;100936.44;4982270;28;20418;-78
2023/07/22 07:49:28;;;;;;;22.40;9.30;;;;;;;28.08;60.48;100914.38;4973605;28;20159;-79
2023/07/22 07:51:54;;;;;;;16.02;7.03;;;;;;;28.08;61.23;100937.03;4963151;28;20050;-79
2023/07/22 07:54:21;;;;;;;22.02;8.85;;;;;;;28.18;60.69;100941.03;4969098;28;20052;-79
2023/07/22 07:56:48;;;;;;;17.30;8.35;;;;;;;28.15;60.89;100945.09;4973269;28;20064;-81
2023/07/22 07:59:20;;;;;;;10.38;6.32;;;;;;;28.24;60.47;100897.22;4976184;28;20046;-80
2023/07/22 08:01:47;;;;;;;16.77;6.57;;;;;;;28.91;59.49;100950.19;4963592;28;20046;-78
2023/07/22 08:04:17;;;;;;;13.73;7.47;;;;;;;28.81;58.85;100925.47;4964069;28;20313;-79
2023/07/22 08:06:44;;;;;;;13.57;7.00;;;;;;;28.72;59.16;100925.06;4972112;28;20312;-80
2023/07/22 08:09:18;;;;;;;13.30;5.93;;;;;;;29.30;58.47;100942.88;4987926;28;20628;-80
2023/07/22 08:11:48;;;;;;;21.08;7.18;;;;;;;28.93;58.21;100877.84;4976653;28;20386;-79
2023/07/22 08:14:16;;;;;;;23.57;9.43;;;;;;;29.35;57.03;100917.50;4976920;28;20049;-79
2023/07/22 08:16:47;;;;;;;20.42;8.80;;;;;;;29.28;57.14;100922.34;4975172;28;20045;-80
2023/07/22 08:19:14;;;;;;;18.38;8.18;;;;;;;29.10;57.64;100924.28;4967647;28;20137;-78
2023/07/22 08:21:41;;;;;;;15.88;7.70;;;;;;;28.93;57.56;100907.06;4984308;28;20056;-78
2023/07/22 08:24:08;;;;;;;22.80;7.05;;;;;;;29.21;57.37;100927.16;4979330;28;20046;-79
2023/07/22 08:26:36;;;;;;;14.32;7.03;;;;;;;29.24;57.51;100938.41;4966559;28;20074;-78
2023/07/22 08:29:03;;;;;;;17.02;7.80;;;;;;;28.54;57.35;100814.97;4983437;28;20053;-79
2023/07/22 08:31:30;;;;;;;17.15;7.25;;;;;;;28.80;57.07;100870.00;4997519;28;20130;-79
2023/07/22 08:33:59;;;;;;;13.50;6.90;;;;;;;29.20;57.45;100915.38;4974172;28;20097;-78
2023/07/22 08:36:26;;;;;;;15.00;6.90;;;;;;;29.65;56.57;100925.25;4961746;28;20054;-79
2023/07/22 08:38:53;;;;;;;18.95;7.05;;;;;;;29.86;55.53;100890.78;4969153;28;20905;-79
2023/07/22 08:41:22;;;;;;;22.30;8.80;;;;;;;29.76;54.83;100894.25;4954338;28;20049;-80
2023/07/22 08:43:51;;;;;;;28.73;6.80;;;;;;;29.93;55.43;100899.63;4977119;28;20053;-81
2023/07/22 08:46:24;;;;;;;20.15;7.65;;;;;;;30.26;54.78;100921.56;4988030;28;20432;-79
2023/07/22 08:48:54;;;;;;;30.55;8.10;;;;;;;29.76;55.10;100869.63;5007375;28;20467;-81
2023/07/22 08:51:23;;;;;;;18.83;7.25;;;;;;;30.04;55.61;100931.44;4993631;28;20088;-77
2023/07/22 08:53:51;;;;;;;25.23;7.30;;;;;;;29.94;55.33;100893.03;4990607;28;20053;-81
2023/07/22 08:56:36;;;;;;;16.50;8.15;;;;;;;30.10;54.58;100928.75;4990358;28;20103;-79
2023/07/22 08:59:06;;;;;;;20.42;7.97;;;;;;;30.40;53.81;100934.56;4980736;28;20387;-78
2023/07/22 09:01:35;;;;;;;19.48;6.97;;;;;;;29.93;53.89;100841.28;4970801;28;20064;-80
2023/07/22 09:04:04;;;;;;;13.20;7.97;;;;;;;30.10;53.37;100928.75;4972880;28;20324;-80
2023/07/22 09:06:35;;;;;;;15.10;7.63;;;;;;;29.94;53.66;100903.16;4969461;28;20052;-80
2023/07/22 09:09:08;;;;;;;21.98;7.28;;;;;;;30.02;54.29;100919.94;4973718;28;20519;-80
2023/07/22 09:11:38;;;;;;;19.08;7.10;;;;;;;30.19;54.12;100899.84;4987641;28;20144;-80
2023/07/22 09:14:06;;;;;;;12.73;6.25;;;;;;;30.30;53.99;100890.66;4975098;28;20401;-82
2023/07/22 09:16:36;;;;;;;15.23;8.43;;;;;;;30.18;54.20;100920.09;4989367;28;20053;-80
2023/07/22 09:19:06;;;;;;;13.63;6.45;;;;;;;30.46;53.29;100880.66;4999662;28;20276;-80
2023/07/22 09:21:36;;;;;;;19.75;8.80;;;;;;;29.80;51.53;100816.00;4992764;28;20229;-80
2023/07/22 09:24:22;;;;;;;17.08;7.40;;;;;;;30.51;53.15;100907.25;4999369;28;20222;-80
2023/07/22 09:26:55;;;;;;;13.07;7.05;;;;;;;30.77;52.56;100917.31;4970985;28;20105;-79
2023/07/22 09:29:46;;;;;;;14.80;6.65;;;;;;;30.18;51.56;100876.31;4975634;28;20493;-78
2023/07/22 09:32:15;;;;;;;14.93;7.55;;;;;;;30.41;52.59;100869.66;4970905;28;20128;-80
2023/07/22 09:34:55;;;;;;;14.70;6.97;;;;;;;30.81;53.07;100910.22;4973484;28;20468;-80
2023/07/22 09:37:37;;;;;;;14.82;7.63;;;;;;;30.50;52.13;100911.09;4969917;28;20045;-80
2023/07/22 09:40:24;;;;;;;15.90;8.02;;;;;;;30.13;52.24;100852.44;4999650;28;20045;-80
2023/07/22 09:42:54;;;;;;;15.32;7.13;;;;;;;30.49;52.55;100871.06;4983510;28;20054;-80
2023/07/22 09:45:25;;;;;;;13.98;7.47;;;;;;;30.71;52.54;100907.41;4995015;28;20057;-79
2023/07/22 09:47:54;;;;;;;15.30;7.82;;;;;;;30.49;52.06;100877.41;4981014;28;20054;-79
2023/07/22 09:50:23;;;;;;;17.95;8.15;;;;;;;30.67;51.95;100889.84;5010255;28;20080;-79
2023/07/22 09:53:01;;;;;;;18.23;8.20;;;;;;;30.80;51.83;100913.22;4986226;28;20057;-79
2023/07/22 09:55:29;;;;;;;13.55;7.32;;;;;;;31.29;51.22;100902.84;4980934;28;20061;-80
2023/07/22 09:58:00;;;;;;;10.90;7.10;;;;;;;30.70;51.42;100856.44;4986420;28;20049;-78
2023/07/22 10:00:33;;;;;;;17.95;7.30;;;;;;;30.93;51.33;100888.13;4965679;28;20053;-80
2023/07/22 10:03:02;;;;;;;15.45;7.18;;;;;;;31.23;50.68;100876.47;4962999;28;20065;-80
2023/07/22 10:05:29;;;;;;;19.80;7.63;;;;;;;31.01;51.73;100884.88;4967625;28;20524;-80
2023/07/22 10:07:58;;;;;;;16.80;7.07;;;;;;;31.22;50.86;100888.56;4989589;28;20056;-79
2023/07/22 10:10:31;;;;;;;20.33;8.07;;;;;;;31.16;50.58;100891.53;4972661;28;20046;-79
2023/07/22 10:12:59;;;;;;;13.02;7.00;;;;;;;30.54;51.65;100816.34;4978166;28;20536;-79
2023/07/22 10:15:35;;;;;;;21.05;8.52;;;;;;;30.55;50.21;100818.81;4989010;28;20124;-79
2023/07/22 10:18:04;;;;;;;13.13;7.38;;;;;;;30.54;51.25;100832.78;4987298;28;20125;-78
2023/07/22 10:20:36;;;;;;;18.65;8.18;;;;;;;31.10;50.82;100876.97;4986082;28;20575;-78
2023/07/22 10:23:04;;;;;;;14.43;7.40;;;;;;;31.42;50.35;100882.34;4994572;28;20144;-79
2023/07/22 10:25:33;;;;;;;13.55;7.50;;;;;;;31.18;50.49;100860.00;4962247;28;20060;-78
2023/07/22 10:28:00;;;;;;;16.48;7.72;;;;;;;31.08;50.84;100841.59;4962164;28;20054;-78
2023/07/22 10:30:28;;;;;;;14.65;7.28;;;;;;;31.37;50.81;100884.22;4970362;28;20073;-80
2023/07/22 10:32:55;;;;;;;15.35;7.30;;;;;;;31.07;50.23;100861.03;4949053;28;20061;-79
2023/07/22 10:35:31;;;;;;;17.42;8.55;;;;;;;31.33;49.73;100874.88;4964311;28;20529;-78
2023/07/22 10:38:12;;;;;;;16.00;8.05;;;;;;;31.54;49.93;100875.81;4962372;28;20056;-78
2023/07/22 10:40:57;;;;;;;17.25;8.90;;;;;;;31.23;49.43;100865.50;4972150;28;20038;-78
2023/07/22 10:43:26;;;;;;;12.30;7.00;;;;;;;31.50;49.61;100854.38;4997123;28;20880;-79
2023/07/22 10:45:55;;;;;;;13.63;6.85;;;;;;;31.39;50.04;100868.34;4965621;28;20552;-78
2023/07/22 10:48:27;;;;;;;13.52;7.60;;;;;;;31.61;49.82;100866.22;4986997;28;20049;-78
2023/07/22 10:50:58;;;;;;;26.35;9.27;;;;;;;31.66;48.76;100855.25;4988190;28;20049;-80
2023/07/22 10:53:29;;;;;;;18.20;8.93;;;;;;;31.73;48.98;100853.06;4968062;28;20189;-78
2023/07/22 10:56:03;;;;;;;19.95;8.50;;;;;;;32.09;48.62;100850.41;5004204;28;20147;-79
2023/07/22 10:58:32;;;;;;;15.65;8.70;;;;;;;32.14;48.43;100842.16;4989555;28;20049;-78
2023/07/22 11:01:30;;;;;;;9.07;7.07;;;;;;;31.82;48.62;100811.34;4962797;28;20061;-78
2023/07/22 11:04:32;;;;;;;14.77;7.72;;;;;;;31.87;48.90;100849.78;4947870;28;20062;-79
2023/07/22 11:07:05;;;;;;;15.40;8.25;;;;;;;31.71;49.28;100837.97;4933376;28;20054;-78
2023/07/22 11:09:37;;;;;;;15.15;8.68;;;;;;;31.77;49.51;100847.03;4924928;28;20059;-79
2023/07/22 11:12:08;;;;;;;15.20;8.00;;;;;;;31.47;49.66;100822.00;4953740;28;20402;-78
2023/07/22 11:14:38;;;;;;;;;;;;;;;31.48;49.93;100834.66;4937210;28;20047;-80
2023/07/22 11:17:08;;;;;;;14.63;7.90;;;;;;;31.68;49.64;100828.38;4931940;28;19953;-78
2023/07/22 11:19:35;;;;;;;16.40;7.63;;;;;;;31.78;49.23;100821.25;4924876;28;20817;-78
2023/07/22 11:22:02;;;;;;;13.05;7.78;;;;;;;31.63;49.58;100822.88;4917577;28;20465;-79
2023/07/22 11:24:29;;;;;;;27.67;8.45;;;;;;;31.51;49.14;100805.84;4927873;28;20047;-79
2023/07/22 11:26:56;;;;;;;19.85;9.10;;;;;;;31.54;49.14;100827.25;4938617;28;20043;-79
2023/07/22 11:29:26;;;;;;;15.48;8.80;;;;;;;31.79;48.16;100812.72;4941557;28;20043;-80